sensor_id;sensor_type;location;lat;lon;timestamp;pressure;altitude;pressure_sealevel;temperature;humidity
69524;BME280;56723;42.694;23.286;2023-02-04T01:30:07;94763.69;;;1.02;88.23
69524;BME280;56723;42.694;23.286;2023-02-04T01:32:34;94768.53;;;0.94;89.26
69524;BME280;56723;42.694;23.286;2023-02-04T01:35:01;94750.66;;;0.72;90.69
69524;BME280;56723;42.694;23.286;2023-02-04T01:37:27;94757.50;;;0.72;91.42
69524;BME280;56723;42.694;23.286;2023-02-04T01:39:54;94756.03;;;0.56;92.94
69524;BME280;56723;42.694;23.286;2023-02-04T01:42:22;94752.03;;;0.41;94.32
69524;BME280;56723;42.694;23.286;2023-02-04T01:44:49;94751.59;;;0.36;94.84
69524;BME280;56723;42.694;23.286;2023-02-04T01:47:17;94745.50;;;0.26;96.28
69524;BME280;56723;42.694;23.286;2023-02-04T01:49:46;94740.50;;;0.24;96.31
69524;BME280;56723;42.694;23.286;2023-02-04T06:44:51;94659.47;;;1.95;81.87
69524;BME280;56723;42.694;23.286;2023-02-04T06:47:19;94658.50;;;2.07;80.89
69524;BME280;56723;42.694;23.286;2023-02-04T06:49:46;94666.81;;;2.21;79.94
69524;BME280;56723;42.694;23.286;2023-02-04T06:52:12;94669.56;;;2.29;78.42
69524;BME280;56723;42.694;23.286;2023-02-04T06:54:39;94671.69;;;2.44;77.92
69524;BME280;56723;42.694;23.286;2023-02-04T06:57:06;94655.16;;;2.49;76.39
69524;BME280;56723;42.694;23.286;2023-02-04T06:59:34;94658.91;;;2.65;76.03
69524;BME280;56723;42.694;23.286;2023-02-04T07:02:02;94656.66;;;2.72;75.35
69524;BME280;56723;42.694;23.286;2023-02-04T07:04:30;94652.22;;;2.74;75.83
69524;BME280;56723;42.694;23.286;2023-02-04T07:06:56;94642.69;;;2.76;75.62
69524;BME280;56723;42.694;23.286;2023-02-04T07:09:23;94639.19;;;2.77;75.65
69524;BME280;56723;42.694;23.286;2023-02-04T07:11:50;94634.47;;;2.82;75.08
69524;BME280;56723;42.694;23.286;2023-02-04T07:14:17;94641.28;;;2.93;74.71
69524;BME280;56723;42.694;23.286;2023-02-04T07:16:44;94633.34;;;2.96;75.06
69524;BME280;56723;42.694;23.286;2023-02-04T07:19:11;94628.63;;;3.01;74.41
69524;BME280;56723;42.694;23.286;2023-02-04T07:21:41;94615.88;;;3.10;74.52
69524;BME280;56723;42.694;23.286;2023-02-04T07:24:08;94626.69;;;3.14;74.11
69524;BME280;56723;42.694;23.286;2023-02-04T07:26:35;94621.81;;;3.11;74.37
69524;BME280;56723;42.694;23.286;2023-02-04T07:29:02;94615.34;;;3.17;73.63
69524;BME280;56723;42.694;23.286;2023-02-04T07:31:29;94606.47;;;3.21;73.51
69524;BME280;56723;42.694;23.286;2023-02-04T07:33:56;94609.19;;;3.29;73.29
69524;BME280;56723;42.694;23.286;2023-02-04T07:36:22;94617.31;;;3.34;72.78
69524;BME280;56723;42.694;23.286;2023-02-04T07:38:49;94621.91;;;3.50;72.06
69524;BME280;56723;42.694;23.286;2023-02-04T07:41:37;94620.72;;;3.63;71.64
69524;BME280;56723;42.694;23.286;2023-02-04T07:44:04;94617.91;;;3.66;71.26
69524;BME280;56723;42.694;23.286;2023-02-04T07:46:31;94611.66;;;3.59;71.51
69524;BME280;56723;42.694;23.286;2023-02-04T07:48:58;94614.66;;;3.64;71.27
69524;BME280;56723;42.694;23.286;2023-02-04T07:51:24;94611.28;;;3.73;70.98
69524;BME280;56723;42.694;23.286;2023-02-04T07:53:54;94596.59;;;3.75;70.05
69524;BME280;56723;42.694;23.286;2023-02-04T07:56:22;94611.69;;;3.69;70.60
69524;BME280;56723;42.694;23.286;2023-02-04T07:58:48;94614.66;;;3.64;70.63
69524;BME280;56723;42.694;23.286;2023-02-04T08:01:15;94613.84;;;3.64;70.75
69524;BME280;56723;42.694;23.286;2023-02-04T08:03:43;94610.72;;;3.60;70.99
69524;BME280;56723;42.694;23.286;2023-02-04T08:06:10;94620.16;;;3.50;71.75
69524;BME280;56723;42.694;23.286;2023-02-04T08:08:37;94611.66;;;3.50;72.67
69524;BME280;56723;42.694;23.286;2023-02-04T08:11:04;94616.50;;;3.43;72.93
69524;BME280;56723;42.694;23.286;2023-02-04T08:13:31;94625.13;;;3.42;73.26
69524;BME280;56723;42.694;23.286;2023-02-04T08:15:58;94605.69;;;3.30;73.28
69524;BME280;56723;42.694;23.286;2023-02-04T08:18:25;94621.44;;;3.35;73.83
69524;BME280;56723;42.694;23.286;2023-02-04T08:20:51;94627.25;;;3.37;73.97
69524;BME280;56723;42.694;23.286;2023-02-04T08:23:18;94625.63;;;3.36;74.27
69524;BME280;56723;42.694;23.286;2023-02-04T08:25:46;94615.94;;;3.30;74.03
69524;BME280;56723;42.694;23.286;2023-02-04T08:28:12;94613.63;;;3.27;74.28
69524;BME280;56723;42.694;23.286;2023-02-04T08:30:39;94602.16;;;3.21;74.85
69524;BME280;56723;42.694;23.286;2023-02-04T08:33:06;94613.25;;;3.31;74.45
69524;BME280;56723;42.694;23.286;2023-02-04T08:35:33;94607.84;;;3.25;74.09
69524;BME280;56723;42.694;23.286;2023-02-04T08:38:00;94611.72;;;3.19;73.81
69524;BME280;56723;42.694;23.286;2023-02-04T08:40:27;94599.16;;;3.16;74.06
69524;BME280;56723;42.694;23.286;2023-02-04T08:42:54;94602.69;;;3.15;75.12
69524;BME280;56723;42.694;23.286;2023-02-04T08:45:21;94600.34;;;3.02;76.42
69524;BME280;56723;42.694;23.286;2023-02-04T08:47:47;94612.31;;;2.92;77.79
69524;BME280;56723;42.694;23.286;2023-02-04T08:50:15;94608.69;;;2.95;78.70
69524;BME280;56723;42.694;23.286;2023-02-04T08:52:41;94601.81;;;2.95;79.09
69524;BME280;56723;42.694;23.286;2023-02-04T08:55:08;94608.16;;;3.01;79.39
69524;BME280;56723;42.694;23.286;2023-02-04T08:57:35;94601.00;;;2.95;79.50
69524;BME280;56723;42.694;23.286;2023-02-04T09:00:03;94594.53;;;2.91;80.18
69524;BME280;56723;42.694;23.286;2023-02-04T09:02:29;94596.41;;;2.89;80.20
69524;BME280;56723;42.694;23.286;2023-02-04T09:04:56;94595.09;;;2.94;80.20
69524;BME280;56723;42.694;23.286;2023-02-04T09:07:23;94596.72;;;2.95;79.36
69524;BME280;56723;42.694;23.286;2023-02-04T09:09:50;94587.28;;;2.96;78.74
69524;BME280;56723;42.694;23.286;2023-02-04T09:12:17;94584.75;;;3.05;77.96
69524;BME280;56723;42.694;23.286;2023-02-04T09:14:44;94580.56;;;3.04;77.90
69524;BME280;56723;42.694;23.286;2023-02-04T09:17:11;94583.28;;;3.12;78.00
69524;BME280;56723;42.694;23.286;2023-02-04T09:19:37;94577.31;;;3.02;76.91
69524;BME280;56723;42.694;23.286;2023-02-04T09:22:04;94580.97;;;3.09;77.36
69524;BME280;56723;42.694;23.286;2023-02-04T09:24:31;94572.19;;;3.02;76.83
69524;BME280;56723;42.694;23.286;2023-02-04T09:26:58;94583.56;;;3.19;75.72
69524;BME280;56723;42.694;23.286;2023-02-04T09:29:25;94598.00;;;3.30;75.28
69524;BME280;56723;42.694;23.286;2023-02-04T09:31:52;94595.03;;;3.25;76.64
69524;BME280;56723;42.694;23.286;2023-02-04T09:34:19;94583.69;;;3.18;78.14
69524;BME280;56723;42.694;23.286;2023-02-04T09:36:46;94596.09;;;3.12;79.36
69524;BME280;56723;42.694;23.286;2023-02-04T09:39:13;94571.38;;;3.02;80.49
69524;BME280;56723;42.694;23.286;2023-02-04T09:41:40;94587.28;;;3.05;81.66
69524;BME280;56723;42.694;23.286;2023-02-04T09:44:13;94593.22;;;2.96;82.71
69524;BME280;56723;42.694;23.286;2023-02-04T09:46:48;94580.25;;;2.88;83.58
69524;BME280;56723;42.694;23.286;2023-02-04T09:49:16;94592.34;;;2.86;84.32
69524;BME280;56723;42.694;23.286;2023-02-04T09:51:43;94576.44;;;2.83;85.03
69524;BME280;56723;42.694;23.286;2023-02-04T09:54:17;94564.31;;;2.75;85.66
69524;BME280;56723;42.694;23.286;2023-02-04T09:56:45;94568.22;;;2.79;85.42
69524;BME280;56723;42.694;23.286;2023-02-04T09:59:19;94565.00;;;2.87;86.07
69524;BME280;56723;42.694;23.286;2023-02-04T10:02:12;94572.19;;;2.93;86.12
69524;BME280;56723;42.694;23.286;2023-02-04T10:04:45;94560.19;;;2.93;84.94
69524;BME280;56723;42.694;23.286;2023-02-04T10:07:21;94561.53;;;2.97;84.38
69524;BME280;56723;42.694;23.286;2023-02-04T10:09:51;94551.47;;;2.96;84.74
69524;BME280;56723;42.694;23.286;2023-02-04T10:12:20;94548.22;;;3.03;83.59
69524;BME280;56723;42.694;23.286;2023-02-04T10:14:48;94536.38;;;3.02;82.84
69524;BME280;56723;42.694;23.286;2023-02-04T10:17:19;94540.97;;;3.08;82.30
69524;BME280;56723;42.694;23.286;2023-02-04T10:19:47;94549.88;;;3.14;82.65
69524;BME280;56723;42.694;23.286;2023-02-04T10:22:16;94540.28;;;3.16;83.40
69524;BME280;56723;42.694;23.286;2023-02-04T10:24:46;94542.03;;;3.16;82.66
69524;BME280;56723;42.694;23.286;2023-02-04T10:27:13;94555.00;;;3.14;83.57
69524;BME280;56723;42.694;23.286;2023-02-04T10:29:54;94537.97;;;3.03;84.13
69524;BME280;56723;42.694;23.286;2023-02-04T10:32:27;94538.38;;;2.99;85.26
69524;BME280;56723;42.694;23.286;2023-02-04T10:35:03;94533.13;;;2.91;87.43
69524;BME280;56723;42.694;23.286;2023-02-04T10:37:30;94523.69;;;2.91;89.18
69524;BME280;56723;42.694;23.286;2023-02-04T10:39:57;94531.75;;;2.77;91.59
69524;BME280;56723;42.694;23.286;2023-02-04T10:42:27;94530.88;;;2.67;93.85
69524;BME280;56723;42.694;23.286;2023-02-04T10:44:54;94535.19;;;2.66;94.84
69524;BME280;56723;42.694;23.286;2023-02-04T10:47:24;94530.97;;;2.56;95.09
69524;BME280;56723;42.694;23.286;2023-02-04T10:52:21;94530.56;;;2.51;96.35
69524;BME280;56723;42.694;23.286;2023-02-04T10:54:49;94526.13;;;2.53;96.01
69524;BME280;56723;42.694;23.286;2023-02-04T10:57:26;94498.38;;;2.48;95.50
69524;BME280;56723;42.694;23.286;2023-02-04T10:59:57;94509.59;;;2.57;95.24
69524;BME280;56723;42.694;23.286;2023-02-04T11:02:43;94511.22;;;2.58;95.12
69524;BME280;56723;42.694;23.286;2023-02-04T11:05:15;94515.78;;;2.64;95.80
69524;BME280;56723;42.694;23.286;2023-02-04T11:07:44;94510.16;;;2.70;91.96
69524;BME280;56723;42.694;23.286;2023-02-04T11:10:32;94511.53;;;2.74;91.84
69524;BME280;56723;42.694;23.286;2023-02-04T11:13:03;94496.19;;;2.74;92.02
69524;BME280;56723;42.694;23.286;2023-02-04T11:15:38;94505.47;;;2.85;91.34
69524;BME280;56723;42.694;23.286;2023-02-04T11:20:45;94496.22;;;2.93;91.24
69524;BME280;56723;42.694;23.286;2023-02-04T11:28:50;94495.00;;;2.88;92.61
69524;BME280;56723;42.694;23.286;2023-02-04T11:33:49;94508.34;;;2.91;94.54
69524;BME280;56723;42.694;23.286;2023-02-04T11:36:16;94501.03;;;2.87;94.90
69524;BME280;56723;42.694;23.286;2023-02-04T11:38:48;94489.31;;;2.84;94.58
69524;BME280;56723;42.694;23.286;2023-02-04T11:41:26;94502.41;;;2.91;94.95
69524;BME280;56723;42.694;23.286;2023-02-04T11:43:56;94496.22;;;2.93;95.01
69524;BME280;56723;42.694;23.286;2023-02-04T11:46:26;94498.91;;;2.92;93.23
69524;BME280;56723;42.694;23.286;2023-02-04T11:48:57;94500.53;;;2.93;93.46
69524;BME280;56723;42.694;23.286;2023-02-04T11:51:30;94497.84;;;2.94;93.80
69524;BME280;56723;42.694;23.286;2023-02-04T11:53:58;94507.28;;;2.94;94.09
69524;BME280;56723;42.694;23.286;2023-02-04T11:56:27;94496.34;;;2.92;95.13
69524;BME280;56723;42.694;23.286;2023-02-04T11:58:56;94498.91;;;2.92;96.28
69524;BME280;56723;42.694;23.286;2023-02-04T12:01:29;94502.66;;;2.88;94.44
69524;BME280;56723;42.694;23.286;2023-02-04T12:04:01;94488.63;;;2.82;95.60
69524;BME280;56723;42.694;23.286;2023-02-04T12:06:30;94496.19;;;2.74;96.61
69524;BME280;56723;42.694;23.286;2023-02-04T12:09:24;94495.63;;;2.70;96.26
69524;BME280;56723;42.694;23.286;2023-02-04T12:11:52;94484.78;;;2.48;98.01
69524;BME280;56723;42.694;23.286;2023-02-04T12:14:20;94495.88;;;2.58;98.85
69524;BME280;56723;42.694;23.286;2023-02-04T12:16:49;94491.13;;;2.53;99.11
69524;BME280;56723;42.694;23.286;2023-02-04T12:19:22;94494.50;;;2.54;100.00
69524;BME280;56723;42.694;23.286;2023-02-04T12:21:50;94494.72;;;2.41;99.46
69524;BME280;56723;42.694;23.286;2023-02-04T12:24:35;94491.75;;;2.46;100.00
69524;BME280;56723;42.694;23.286;2023-02-04T12:27:02;94486.91;;;2.42;100.00
69524;BME280;56723;42.694;23.286;2023-02-04T12:29:29;94485.03;;;2.44;100.00
69524;BME280;56723;42.694;23.286;2023-02-04T12:31:56;94478.56;;;2.40;100.00
69524;BME280;56723;42.694;23.286;2023-02-04T12:34:23;94470.09;;;2.40;100.00
69524;BME280;56723;42.694;23.286;2023-02-04T12:36:50;94473.47;;;2.50;100.00
69524;BME280;56723;42.694;23.286;2023-02-04T12:39:17;94474.72;;;2.56;100.00
69524;BME280;56723;42.694;23.286;2023-02-04T12:41:43;94475.66;;;2.64;99.33
69524;BME280;56723;42.694;23.286;2023-02-04T12:44:10;94482.72;;;2.72;97.05
69524;BME280;56723;42.694;23.286;2023-02-04T12:46:37;94472.59;;;2.80;96.83
69524;BME280;56723;42.694;23.286;2023-02-04T12:49:05;94468.16;;;2.82;94.68
69524;BME280;56723;42.694;23.286;2023-02-04T12:51:34;94479.50;;;2.89;92.07
69524;BME280;56723;42.694;23.286;2023-02-04T12:54:01;94464.16;;;2.89;92.71
69524;BME280;56723;42.694;23.286;2023-02-04T12:56:28;94472.25;;;2.94;90.99
69524;BME280;56723;42.694;23.286;2023-02-04T12:58:55;94471.69;;;3.00;91.72
69524;BME280;56723;42.694;23.286;2023-02-04T13:01:22;94464.44;;;2.96;90.04
69524;BME280;56723;42.694;23.286;2023-02-04T13:03:49;94467.28;;;2.93;90.17
69524;BME280;56723;42.694;23.286;2023-02-04T13:06:16;94471.03;;;2.98;89.78
69524;BME280;56723;42.694;23.286;2023-02-04T13:08:43;94473.88;;;2.95;89.06
69524;BME280;56723;42.694;23.286;2023-02-04T13:11:10;94474.13;;;2.92;90.17
69524;BME280;56723;42.694;23.286;2023-02-04T13:13:37;94476.00;;;2.90;88.84
69524;BME280;56723;42.694;23.286;2023-02-04T13:16:04;94480.88;;;2.93;88.29
69524;BME280;56723;42.694;23.286;2023-02-04T13:18:31;94479.94;;;2.94;88.00
69524;BME280;56723;42.694;23.286;2023-02-04T13:20:59;94489.50;;;2.92;86.95
69524;BME280;56723;42.694;23.286;2023-02-04T13:23:27;94497.41;;;2.89;87.21
69524;BME280;56723;42.694;23.286;2023-02-04T13:25:54;94497.13;;;2.83;87.82
69524;BME280;56723;42.694;23.286;2023-02-04T13:28:22;94511.28;;;2.87;88.40
69524;BME280;56723;42.694;23.286;2023-02-04T13:30:49;94496.75;;;2.87;88.50
69524;BME280;56723;42.694;23.286;2023-02-04T13:33:16;94494.56;;;2.83;88.78
69524;BME280;56723;42.694;23.286;2023-02-04T13:35:43;94501.34;;;2.93;88.98
69524;BME280;56723;42.694;23.286;2023-02-04T13:38:10;94502.94;;;2.85;89.59
69524;BME280;56723;42.694;23.286;2023-02-04T13:40:37;94501.56;;;2.81;88.83
69524;BME280;56723;42.694;23.286;2023-02-04T13:43:04;94506.97;;;2.87;89.52
69524;BME280;56723;42.694;23.286;2023-02-04T13:45:31;94516.28;;;2.88;89.52
69524;BME280;56723;42.694;23.286;2023-02-04T13:47:59;94510.47;;;2.86;88.17
69524;BME280;56723;42.694;23.286;2023-02-04T13:50:27;94516.94;;;2.90;87.91
69524;BME280;56723;42.694;23.286;2023-02-04T13:52:54;94516.53;;;2.85;87.49
69524;BME280;56723;42.694;23.286;2023-02-04T13:55:21;94515.44;;;2.78;87.22
69524;BME280;56723;42.694;23.286;2023-02-04T13:57:48;94503.72;;;2.85;87.33
69524;BME280;56723;42.694;23.286;2023-02-04T14:00:15;94511.97;;;2.89;87.55
69524;BME280;56723;42.694;23.286;2023-02-04T14:02:42;94510.03;;;2.81;87.24
69524;BME280;56723;42.694;23.286;2023-02-04T14:05:09;94511.78;;;2.81;86.07
69524;BME280;56723;42.694;23.286;2023-02-04T14:07:46;94515.84;;;2.83;87.29
69524;BME280;56723;42.694;23.286;2023-02-04T14:10:17;94532.00;;;2.84;87.00
69524;BME280;56723;42.694;23.286;2023-02-04T14:12:44;94535.50;;;2.83;87.25
69524;BME280;56723;42.694;23.286;2023-02-04T14:15:11;94539.81;;;2.82;87.02
69524;BME280;56723;42.694;23.286;2023-02-04T14:17:38;94525.28;;;2.83;87.18
69524;BME280;56723;42.694;23.286;2023-02-04T14:20:05;94546.53;;;2.83;87.16
69524;BME280;56723;42.694;23.286;2023-02-04T14:22:32;94545.19;;;2.79;86.26
69524;BME280;56723;42.694;23.286;2023-02-04T14:25:01;94562.69;;;2.74;87.66
69524;BME280;56723;42.694;23.286;2023-02-04T14:27:28;94561.38;;;2.49;92.38
69524;BME280;56723;42.694;23.286;2023-02-04T14:29:55;94581.47;;;2.12;94.63
69524;BME280;56723;42.694;23.286;2023-02-04T14:32:22;94590.19;;;1.89;94.35
69524;BME280;56723;42.694;23.286;2023-02-04T14:34:49;94587.44;;;1.81;95.52
69524;BME280;56723;42.694;23.286;2023-02-04T14:37:16;94596.50;;;1.73;95.97
69524;BME280;56723;42.694;23.286;2023-02-04T14:39:43;94570.38;;;1.49;96.84
69524;BME280;56723;42.694;23.286;2023-02-04T14:42:13;94592.88;;;1.55;97.33
69524;BME280;56723;42.694;23.286;2023-02-04T14:44:40;94581.53;;;1.48;96.27
69524;BME280;56723;42.694;23.286;2023-02-04T14:47:07;94592.88;;;1.55;96.51
69524;BME280;56723;42.694;23.286;2023-02-04T14:49:33;94585.09;;;1.57;92.10
69524;BME280;56723;42.694;23.286;2023-02-04T14:52:02;94588.09;;;1.62;90.20
69524;BME280;56723;42.694;23.286;2023-02-04T14:54:30;94593.31;;;1.60;88.66
69524;BME280;56723;42.694;23.286;2023-02-04T14:56:57;94591.94;;;1.56;89.82
69524;BME280;56723;42.694;23.286;2023-02-04T14:59:23;94595.88;;;1.60;89.23
69524;BME280;56723;42.694;23.286;2023-02-04T15:01:50;94590.28;;;1.66;88.71
69524;BME280;56723;42.694;23.286;2023-02-04T15:04:18;94602.91;;;1.68;88.14
